createdAt,value
2022-11-28T00:00:53.447Z,97010.59
2022-11-28T00:02:57.520Z,97012.16
2022-11-28T00:05:00.263Z,97006.19
2022-11-28T00:07:03.311Z,97008.84
2022-11-28T00:09:06.200Z,97009.66
2022-11-28T00:11:10.633Z,97007.97
2022-11-28T00:13:13.362Z,97007.13
2022-11-28T00:15:16.025Z,97010.56
2022-11-28T00:17:18.628Z,97020.94
2022-11-28T00:19:22.617Z,97018.34
2022-11-28T00:21:25.249Z,97019.28
2022-11-28T00:23:28.182Z,97009.81
2022-11-28T00:25:30.781Z,97015.84
2022-11-28T00:27:35.273Z,97009.78
2022-11-28T00:29:39.352Z,97014.09
2022-11-28T00:31:43.757Z,97020.16
2022-11-28T00:33:47.098Z,97013.25
2022-11-28T00:35:51.125Z,97013.19
2022-11-28T00:37:53.701Z,97016.63
2022-11-28T00:39:56.324Z,97014.97
2022-11-28T00:41:58.893Z,97023.59
2022-11-28T00:44:01.760Z,97012.41
2022-11-28T00:46:05.391Z,97013.25
2022-11-28T00:48:08.622Z,97023.75
2022-11-28T00:50:11.604Z,97020.03
2022-11-28T00:52:15.535Z,97025.41
2022-11-28T00:54:18.137Z,97026.28
2022-11-28T00:56:22.938Z,97025.44
2022-11-28T00:58:25.562Z,97018.69
2022-11-28T01:00:28.197Z,97014.19
2022-11-28T01:02:30.797Z,97010.06
2022-11-28T01:04:33.442Z,97016.06
2022-11-28T01:06:38.473Z,97009.13
2022-11-28T01:08:42.411Z,97009.22
2022-11-28T01:10:46.529Z,97005.81
2022-11-28T01:12:49.224Z,96992.00
2022-11-28T01:14:51.802Z,96993.75
2022-11-28T01:16:54.844Z,96994.63
2022-11-28T01:18:57.722Z,96990.31
2022-11-28T01:21:00.419Z,96983.44
2022-11-28T01:23:03.068Z,96987.72
2022-11-28T01:25:07.898Z,96986.00
2022-11-28T01:27:10.479Z,96981.78
2022-11-28T01:29:13.631Z,96980.09
2022-11-28T01:31:18.246Z,96982.66
2022-11-28T01:33:20.885Z,96976.63
2022-11-28T01:35:23.488Z,96970.56
2022-11-28T01:37:26.177Z,96976.59
2022-11-28T01:39:28.876Z,96980.91
2022-11-28T01:41:32.854Z,96980.94
2022-11-28T01:43:36.246Z,96971.50
2022-11-28T01:45:41.562Z,96975.81
2022-11-28T01:47:45.389Z,96973.22
2022-11-28T01:49:50.186Z,96968.09
2022-11-28T01:51:57.100Z,96975.03
2022-11-28T01:54:00.788Z,96969.88
2022-11-28T01:56:08.225Z,96963.81
2022-11-28T01:58:13.631Z,96967.31
2022-11-28T02:00:19.374Z,96962.16
2022-11-28T02:02:28.087Z,96958.72
2022-11-28T02:04:33.994Z,96962.97
2022-11-28T02:06:37.338Z,96962.16
2022-11-28T02:08:40.129Z,96954.44
2022-11-28T02:10:58.524Z,96960.47
2022-11-28T02:13:19.972Z,96951.94
2022-11-28T02:15:34.834Z,96950.22
2022-11-28T02:17:50.621Z,96952.81
2022-11-28T02:20:21.303Z,96946.75
2022-11-28T02:22:27.779Z,96944.16
2022-11-28T02:24:50.690Z,96943.28
2022-11-28T02:27:24.049Z,96949.28
2022-11-28T02:30:04.696Z,96951.06
2022-11-28T02:32:30.994Z,96936.41
2022-11-28T02:34:45.659Z,96938.13
2022-11-28T02:36:53.611Z,96931.22
2022-11-28T02:39:03.815Z,96924.38
2022-11-28T02:41:14.157Z,96921.75
2022-11-28T02:43:24.687Z,96916.63
2022-11-28T02:45:33.031Z,96916.63
2022-11-28T02:47:39.380Z,96913.25
2022-11-28T02:49:48.297Z,96913.19
2022-11-28T02:51:56.437Z,96904.50
2022-11-28T02:54:00.877Z,96903.75
2022-11-28T02:56:03.759Z,96900.22
2022-11-28T02:58:06.357Z,96898.47
2022-11-28T03:00:26.715Z,96895.91
2022-11-28T03:02:32.479Z,96892.47
2022-11-28T03:04:45.773Z,96895.84
2022-11-28T03:06:59.404Z,96884.66
2022-11-28T03:09:26.036Z,96874.31
2022-11-28T03:11:42.557Z,96880.34
2022-11-28T03:13:55.177Z,96881.19
2022-11-28T03:16:07.242Z,96877.78
2022-11-28T03:18:14.945Z,96876.97
2022-11-28T03:20:24.000Z,96873.44
2022-11-28T03:22:31.544Z,96872.53
2022-11-28T03:24:38.688Z,96876.03
2022-11-28T03:26:49.096Z,96876.13
2022-11-28T03:28:56.704Z,96872.66
2022-11-28T03:31:05.839Z,96865.81
2022-11-28T03:33:09.629Z,96855.50
2022-11-28T03:35:16.073Z,96860.69
2022-11-28T03:37:24.537Z,96853.94
2022-11-28T03:39:32.830Z,96858.31
2022-11-28T03:41:39.798Z,96868.56
2022-11-28T03:43:46.172Z,96863.47
2022-11-28T03:45:52.988Z,96852.28
2022-11-28T03:48:01.644Z,96865.97
2022-11-28T03:50:09.264Z,96853.94
2022-11-28T03:52:17.145Z,96831.53
2022-11-28T03:54:29.142Z,96840.88
2022-11-28T03:56:40.982Z,96852.88
2022-11-28T03:58:49.313Z,96875.38
2022-11-28T04:01:04.180Z,96878.75
2022-11-28T04:03:15.585Z,96869.31
2022-11-28T04:05:23.831Z,96860.69
2022-11-28T04:07:34.627Z,96835.69
2022-11-28T04:09:46.243Z,96821.91
2022-11-28T04:11:53.104Z,96839.09
2022-11-28T04:13:59.177Z,96849.41
2022-11-28T04:16:06.204Z,96873.56
2022-11-28T04:18:21.979Z,96884.72
2022-11-28T04:20:31.010Z,96880.94
2022-11-28T04:22:39.085Z,96872.50
2022-11-28T04:24:48.313Z,96880.34
2022-11-28T04:26:56.967Z,96885.47
2022-11-28T04:29:01.757Z,96877.69
2022-11-28T04:31:06.864Z,96879.50
2022-11-28T04:33:12.770Z,96874.47
2022-11-28T04:35:23.403Z,96876.19
2022-11-28T04:37:28.486Z,96877.97
2022-11-28T04:39:33.130Z,96875.31
2022-11-28T04:41:41.513Z,96885.81
2022-11-28T04:43:48.580Z,96880.63
2022-11-28T04:45:55.040Z,96879.69
2022-11-28T04:47:58.527Z,96874.59
2022-11-28T04:50:01.502Z,96877.16
2022-11-28T04:52:10.150Z,96877.97
2022-11-28T04:54:18.818Z,96877.97
2022-11-28T04:56:26.660Z,96881.38
2022-11-28T04:58:36.941Z,96878.81
2022-11-28T05:00:40.779Z,96881.38
2022-11-28T05:02:45.490Z,96875.34
2022-11-28T05:04:50.914Z,96882.22
2022-11-28T05:07:02.366Z,96875.38
2022-11-28T05:09:05.560Z,96871.97
2022-11-28T05:11:08.133Z,96878.81
2022-11-28T05:13:11.147Z,96879.66
2022-11-28T05:15:18.994Z,96875.34
2022-11-28T05:17:21.683Z,96866.78
2022-11-28T05:19:24.267Z,96874.53
2022-11-28T05:21:26.904Z,96874.59
2022-11-28T05:23:29.651Z,96874.59
2022-11-28T05:25:32.299Z,96875.44
2022-11-28T05:27:34.931Z,96886.63
2022-11-28T05:29:37.517Z,96881.47
2022-11-28T05:31:41.588Z,96882.34
2022-11-28T05:33:44.206Z,96878.91
2022-11-28T05:35:46.779Z,96877.97
2022-11-28T05:37:49.398Z,96879.78
2022-11-28T05:39:52.102Z,96870.25
2022-11-28T05:41:55.818Z,96871.13
2022-11-28T05:43:59.570Z,96877.16
2022-11-28T05:46:02.304Z,96879.75
2022-11-28T05:48:07.006Z,96879.69
2022-11-28T05:50:10.225Z,96877.97
2022-11-28T05:52:12.843Z,96877.97
2022-11-28T05:54:15.941Z,96875.41
2022-11-28T05:56:20.601Z,96872.69
2022-11-28T05:58:23.493Z,96876.22
2022-11-28T06:00:26.194Z,96871.94
2022-11-28T06:02:28.846Z,96873.66
2022-11-28T06:04:32.846Z,96876.22
2022-11-28T06:06:38.619Z,96868.47
2022-11-28T06:08:41.272Z,96864.19
2022-11-28T06:10:43.918Z,96864.31
2022-11-28T06:12:46.488Z,96863.44
2022-11-28T06:14:49.071Z,96866.84
2022-11-28T06:16:51.712Z,96866.09
2022-11-28T06:18:55.226Z,96854.94
2022-11-28T06:21:02.661Z,96860.94
2022-11-28T06:23:05.281Z,96857.53
2022-11-28T06:25:08.320Z,96860.06
2022-11-28T06:27:11.009Z,96855.78
2022-11-28T06:29:13.572Z,96857.53
2022-11-28T06:31:17.976Z,96867.00
2022-11-28T06:33:20.667Z,96867.88
2022-11-28T06:35:23.274Z,96876.44
2022-11-28T06:37:27.243Z,96876.44
2022-11-28T06:39:29.847Z,96872.97
2022-11-28T06:41:32.587Z,96867.06
2022-11-28T06:43:35.489Z,96866.13
2022-11-28T06:45:38.131Z,96866.19
2022-11-28T06:47:40.797Z,96875.66
2022-11-28T06:49:43.479Z,96863.69
2022-11-28T06:51:46.277Z,96867.22
2022-11-28T06:53:50.811Z,96862.94
2022-11-28T06:55:53.539Z,96856.88
2022-11-28T06:57:56.162Z,96867.19
2022-11-28T06:59:58.728Z,96861.97
2022-11-28T07:02:07.503Z,96870.59
2022-11-28T07:04:10.784Z,96874.91
2022-11-28T07:06:14.170Z,96882.66
2022-11-28T07:08:17.290Z,96888.63
2022-11-28T07:10:21.450Z,96886.88
2022-11-28T07:12:24.541Z,96887.78
2022-11-28T07:14:27.532Z,96876.47
2022-11-28T07:16:33.267Z,96886.81
2022-11-28T07:18:36.032Z,96883.41
2022-11-28T07:20:38.621Z,96890.31
2022-11-28T07:22:41.379Z,96895.38
2022-11-28T07:24:43.950Z,96890.09
2022-11-28T07:26:47.985Z,96885.94
2022-11-28T07:28:51.743Z,96888.53
2022-11-28T07:31:00.886Z,96882.44
2022-11-28T07:33:03.489Z,96873.84
2022-11-28T07:35:08.295Z,96871.28
2022-11-28T07:37:10.886Z,96883.34
2022-11-28T07:39:18.527Z,96886.94
2022-11-28T07:41:26.298Z,96884.28
2022-11-28T07:43:30.862Z,96882.53
2022-11-28T07:45:58.933Z,96879.13
2022-11-28T07:47:56.102Z,96886.81
2022-11-28T07:49:58.694Z,96881.59
2022-11-28T07:52:01.382Z,96886.69
2022-11-28T07:54:04.883Z,96876.28
2022-11-28T07:56:09.864Z,96887.41
2022-11-28T07:58:12.521Z,96887.34
2022-11-28T08:00:18.250Z,96893.44
2022-11-28T08:02:20.861Z,96893.38
2022-11-28T08:04:23.904Z,96894.16
2022-11-28T08:06:28.644Z,96883.72
2022-11-28T08:08:31.821Z,96882.88
2022-11-28T08:10:34.544Z,96889.69
2022-11-28T08:12:37.166Z,96890.44
2022-11-28T08:14:40.154Z,96891.28
2022-11-28T08:16:45.244Z,96888.59
2022-11-28T08:18:48.842Z,96896.31
2022-11-28T08:20:51.553Z,96899.69
2022-11-28T08:22:54.131Z,96903.09
2022-11-28T08:24:56.698Z,96903.03
2022-11-28T08:26:59.262Z,96907.25
2022-11-28T08:29:03.042Z,96901.13
2022-11-28T08:31:10.194Z,96908.81
2022-11-28T08:33:14.206Z,96906.19
2022-11-28T08:35:16.904Z,96906.06
2022-11-28T08:37:19.589Z,96902.47
2022-11-28T08:39:24.934Z,96895.69
2022-11-28T08:41:28.083Z,96896.50
2022-11-28T08:43:30.718Z,96894.78
2022-11-28T08:45:33.367Z,96896.56
2022-11-28T08:47:36.123Z,96893.72
2022-11-28T08:49:40.096Z,96892.72
2022-11-28T08:51:42.749Z,96894.66
2022-11-28T08:53:48.737Z,96892.97
2022-11-28T08:55:52.770Z,96889.53
2022-11-28T08:57:55.381Z,96889.53
2022-11-28T08:59:58.049Z,96894.66
2022-11-28T09:02:00.631Z,96889.44
2022-11-28T09:04:03.328Z,96892.00
2022-11-28T09:06:07.517Z,96894.50
2022-11-28T09:08:12.040Z,96891.84
2022-11-28T09:10:15.050Z,96896.09
2022-11-28T09:12:17.781Z,96894.28
2022-11-28T09:14:20.379Z,96886.50
2022-11-28T09:16:23.069Z,96889.91
2022-11-28T09:18:27.038Z,96891.53
2022-11-28T09:20:29.694Z,96892.31
2022-11-28T09:22:33.633Z,96891.41
2022-11-28T09:24:36.246Z,96893.09
2022-11-28T09:26:38.921Z,96906.84
2022-11-28T09:28:41.887Z,96891.31
2022-11-28T09:30:44.539Z,96895.63
2022-11-28T09:32:49.558Z,96896.47
2022-11-28T09:34:52.197Z,96895.59
2022-11-28T09:36:54.874Z,96899.00
2022-11-28T09:39:00.553Z,96896.31
2022-11-28T09:41:04.381Z,96890.19
2022-11-28T09:43:13.046Z,96896.22
2022-11-28T09:45:18.882Z,96897.06
2022-11-28T09:47:26.429Z,96887.47
2022-11-28T09:49:41.149Z,96891.78
2022-11-28T09:51:50.888Z,96891.69
2022-11-28T09:54:03.929Z,96887.38
2022-11-28T09:56:12.407Z,96887.66
2022-11-28T09:58:18.373Z,96895.31
2022-11-28T10:00:22.839Z,96896.16
2022-11-28T10:02:34.680Z,96900.50
2022-11-28T10:04:41.990Z,96903.03
2022-11-28T10:06:56.543Z,96899.56
2022-11-28T10:09:19.074Z,96905.50
2022-11-28T10:11:36.439Z,96898.53
2022-11-28T10:14:07.648Z,96900.22
2022-11-28T10:16:17.421Z,96901.00
2022-11-28T10:18:31.661Z,96902.69
2022-11-28T10:20:39.215Z,96899.97
2022-11-28T10:22:45.463Z,96895.59
2022-11-28T10:24:53.278Z,96897.22
2022-11-28T10:27:02.636Z,96893.69
2022-11-28T10:29:16.912Z,96895.34
2022-11-28T10:31:26.580Z,96893.53
2022-11-28T10:33:32.783Z,96896.03
2022-11-28T10:35:44.047Z,96887.34
2022-11-28T10:37:46.878Z,96886.44
2022-11-28T10:39:51.662Z,96882.03
2022-11-28T10:42:19.827Z,96874.22
2022-11-28T10:44:32.290Z,96880.16
2022-11-28T10:46:51.274Z,96872.34
2022-11-28T10:49:00.520Z,96874.06
2022-11-28T10:51:13.765Z,96873.09
2022-11-28T10:53:31.515Z,96876.56
2022-11-28T10:55:45.747Z,96876.47
2022-11-28T10:57:59.137Z,96884.16
2022-11-28T11:00:06.562Z,96888.44
2022-11-28T11:02:22.662Z,96879.78
2022-11-28T11:04:28.120Z,96880.59
2022-11-28T11:06:41.387Z,96871.91
2022-11-28T11:08:50.826Z,96875.34
2022-11-28T11:11:06.572Z,96867.53
2022-11-28T11:13:19.236Z,96871.84
2022-11-28T11:15:25.437Z,96871.78
2022-11-28T11:17:36.181Z,96869.16
2022-11-28T11:19:41.214Z,96863.97
2022-11-28T11:21:59.816Z,96852.69
2022-11-28T11:24:13.556Z,96862.19
2022-11-28T11:26:26.021Z,96863.00
2022-11-28T11:28:43.591Z,96854.31
2022-11-28T11:30:47.375Z,96851.69
2022-11-28T11:32:51.782Z,96849.03
2022-11-28T11:34:57.112Z,96845.56
2022-11-28T11:37:20.781Z,96842.94
2022-11-28T11:39:25.524Z,96853.25
2022-11-28T11:41:32.003Z,96858.34
2022-11-28T11:43:36.534Z,96860.06
2022-11-28T11:45:39.486Z,96855.75
2022-11-28T11:47:44.169Z,96854.09
2022-11-28T11:49:49.279Z,96854.81
2022-11-28T11:51:57.336Z,96859.03
2022-11-28T11:54:04.276Z,96858.16
2022-11-28T11:56:07.473Z,96856.38
2022-11-28T11:58:15.457Z,96858.97
2022-11-28T12:00:22.355Z,96853.78
2022-11-28T12:02:32.310Z,96854.56
2022-11-28T12:04:51.228Z,96850.25
2022-11-28T12:06:59.613Z,96858.88
2022-11-28T12:09:12.650Z,96852.72
2022-11-28T12:11:20.003Z,96845.81
2022-11-28T12:13:26.832Z,96847.50
2022-11-28T12:15:44.065Z,96837.97
2022-11-28T12:17:59.348Z,96837.09
2022-11-28T12:20:23.586Z,96828.47
2022-11-28T12:22:35.896Z,96824.91
2022-11-28T12:24:47.275Z,96825.72
2022-11-28T12:27:07.489Z,96827.38
2022-11-28T12:29:26.337Z,96818.69
2022-11-28T12:31:42.794Z,96816.88
2022-11-28T12:33:55.826Z,96822.84
2022-11-28T12:36:10.226Z,96818.53
2022-11-28T12:38:31.275Z,96811.56
2022-11-28T12:40:39.235Z,96809.84
2022-11-28T12:42:58.402Z,96818.41
2022-11-28T12:45:24.009Z,96815.88
2022-11-28T12:47:38.610Z,96816.63
2022-11-28T12:49:52.229Z,96819.97
2022-11-28T12:52:07.620Z,96821.59
2022-11-28T12:54:35.519Z,96818.97
2022-11-28T12:56:49.502Z,96818.97
2022-11-28T12:58:59.564Z,96824.94
2022-11-28T13:01:24.941Z,96823.22
2022-11-28T13:03:42.167Z,96811.09
2022-11-28T13:05:54.747Z,96807.66
2022-11-28T13:08:12.936Z,96801.56
2022-11-28T13:10:25.738Z,96803.28
2022-11-28T13:12:41.032Z,96795.50
2022-11-28T13:14:52.379Z,96792.84
2022-11-28T13:17:00.371Z,96794.53
2022-11-28T13:19:09.355Z,96793.59
2022-11-28T13:21:23.656Z,96792.63
2022-11-28T13:23:30.231Z,96784.84
2022-11-28T13:25:41.285Z,96782.16
2022-11-28T13:27:51.258Z,96793.38
2022-11-28T13:30:06.524Z,96789.03
2022-11-28T13:32:17.697Z,96792.50
2022-11-28T13:34:22.017Z,96789.84
2022-11-28T13:39:12.559Z,96785.47
2022-11-28T13:42:00.852Z,96777.66
2022-11-28T13:43:59.293Z,96779.34
2022-11-28T13:46:02.362Z,96778.50
2022-11-28T13:51:06.601Z,96769.88
2022-11-28T13:53:26.135Z,96772.47
2022-11-28T13:55:40.781Z,96781.09
2022-11-28T13:57:43.451Z,96774.16
2022-11-28T13:59:50.960Z,96770.56
2022-11-28T14:01:58.765Z,96770.53
2022-11-28T14:04:09.055Z,96767.94
2022-11-28T14:06:16.591Z,96765.34
2022-11-28T14:08:30.238Z,96763.63
2022-11-28T14:10:48.456Z,96768.81
2022-11-28T14:13:06.432Z,96766.22
2022-11-28T14:15:24.240Z,96765.34
2022-11-28T14:17:39.027Z,96766.28
2022-11-28T14:19:55.394Z,96775.81
2022-11-28T14:22:10.445Z,96769.72
2022-11-28T14:24:21.148Z,96767.94
2022-11-28T14:26:28.393Z,96773.13
2022-11-28T14:28:36.722Z,96778.25
2022-11-28T14:30:42.376Z,96779.16
2022-11-28T14:32:45.623Z,96777.41
2022-11-28T14:34:49.644Z,96778.31
2022-11-28T14:37:30.839Z,96773.19
2022-11-28T14:39:35.646Z,96770.53
2022-11-28T14:42:17.820Z,96772.25
2022-11-28T14:44:48.077Z,96767.13
2022-11-28T14:47:06.864Z,96775.81
2022-11-28T14:49:22.953Z,96770.63
2022-11-28T14:52:15.929Z,96765.50
2022-11-28T14:54:23.872Z,96771.50
2022-11-28T14:56:29.389Z,96769.84
2022-11-28T14:58:32.049Z,96774.22
2022-11-28T15:00:47.390Z,96768.13
2022-11-28T15:03:05.681Z,96768.13
2022-11-28T15:05:21.815Z,96770.72
2022-11-28T15:07:35.713Z,96769.03
2022-11-28T15:09:45.377Z,96776.81
2022-11-28T15:12:04.055Z,96781.16
2022-11-28T15:14:11.183Z,96771.69
2022-11-28T15:16:16.290Z,96773.41
2022-11-28T15:18:20.333Z,96778.78
2022-11-28T15:20:28.998Z,96774.38
2022-11-28T15:22:33.488Z,96781.31
2022-11-28T15:24:37.586Z,96782.19
2022-11-28T15:26:40.252Z,96772.72
2022-11-28T15:28:44.286Z,96776.19
2022-11-28T15:30:48.476Z,96773.63
2022-11-28T15:32:51.534Z,96779.66
2022-11-28T15:34:59.487Z,96777.13
2022-11-28T15:37:04.413Z,96785.75
2022-11-28T15:39:25.680Z,96782.34
2022-11-28T15:41:29.015Z,96777.22
2022-11-28T15:43:32.437Z,96783.31
2022-11-28T15:45:36.966Z,96787.66
2022-11-28T15:47:41.224Z,96780.75
2022-11-28T15:49:44.124Z,96779.94
2022-11-28T15:51:53.875Z,96779.00
2022-11-28T15:53:56.697Z,96779.97
2022-11-28T15:56:09.710Z,96778.31
2022-11-28T15:58:19.027Z,96783.44
2022-11-28T16:00:21.992Z,96783.50
2022-11-28T16:02:30.978Z,96776.63
2022-11-28T16:04:33.616Z,96784.41
2022-11-28T16:06:39.441Z,96785.31
2022-11-28T16:08:49.226Z,96786.16
2022-11-28T16:10:51.981Z,96787.88
2022-11-28T16:13:01.994Z,96792.25
2022-11-28T16:15:05.919Z,96796.53
2022-11-28T16:17:15.807Z,96791.34
2022-11-28T16:19:25.047Z,96792.25
2022-11-28T16:21:30.624Z,96792.28
2022-11-28T16:23:36.015Z,96796.41
2022-11-28T16:25:38.868Z,96799.97
2022-11-28T16:27:44.375Z,96804.38
2022-11-28T16:29:47.951Z,96806.09
2022-11-28T16:31:51.139Z,96803.44
2022-11-28T16:33:53.731Z,96800.91
2022-11-28T16:36:10.299Z,96801.78
2022-11-28T16:38:17.379Z,96800.03
2022-11-28T16:40:22.808Z,96790.53
2022-11-28T16:42:25.530Z,96792.28
2022-11-28T16:44:28.176Z,96787.94
2022-11-28T16:46:35.243Z,96783.66
2022-11-28T16:48:39.425Z,96786.25
2022-11-28T16:51:12.629Z,96792.31
2022-11-28T16:53:43.742Z,96788.22
2022-11-28T16:55:46.410Z,96786.50
2022-11-28T16:57:54.533Z,96789.94
2022-11-28T16:59:57.733Z,96792.53
2022-11-28T17:02:00.413Z,96783.03
2022-11-28T17:04:04.245Z,96785.69
2022-11-28T17:06:07.245Z,96785.69
2022-11-28T17:08:09.802Z,96785.69
2022-11-28T17:10:15.081Z,96788.22
2022-11-28T17:12:24.673Z,96780.44
2022-11-28T17:14:27.295Z,96781.38
2022-11-28T17:16:30.146Z,96790.00
2022-11-28T17:18:32.749Z,96787.31
2022-11-28T17:20:35.991Z,96792.53
2022-11-28T17:22:41.536Z,96788.22
2022-11-28T17:24:44.378Z,96783.97
2022-11-28T17:26:48.862Z,96785.63
2022-11-28T17:28:51.501Z,96783.03
2022-11-28T17:30:55.104Z,96783.09
2022-11-28T17:32:59.992Z,96783.03
2022-11-28T17:35:04.031Z,96778.78
2022-11-28T17:37:06.744Z,96789.25
2022-11-28T17:39:09.366Z,96783.22
2022-11-28T17:41:14.284Z,96780.66
2022-11-28T17:43:19.554Z,96779.81
2022-11-28T17:45:23.305Z,96778.94
2022-11-28T17:47:25.904Z,96774.63
2022-11-28T17:49:28.826Z,96777.22
2022-11-28T17:51:31.382Z,96775.47
2022-11-28T17:53:33.979Z,96772.03
2022-11-28T17:55:36.605Z,96773.81
2022-11-28T17:57:39.382Z,96772.13
2022-11-28T17:59:43.585Z,96778.22
2022-11-28T18:01:46.938Z,96780.81
2022-11-28T18:03:49.543Z,96780.81
2022-11-28T18:05:52.215Z,96781.66
2022-11-28T18:07:54.889Z,96780.81
2022-11-28T18:09:57.508Z,96776.41
2022-11-28T18:12:01.082Z,96784.19
2022-11-28T18:14:03.787Z,96779.81
2022-11-28T18:16:08.833Z,96778.94
2022-11-28T18:18:11.747Z,96777.16
2022-11-28T18:20:14.451Z,96783.31
2022-11-28T18:22:17.071Z,96798.75
2022-11-28T18:24:19.728Z,96801.34
2022-11-28T18:26:24.663Z,96804.84
2022-11-28T18:28:27.304Z,96806.59
2022-11-28T18:30:29.919Z,96803.16
2022-11-28T18:32:34.622Z,96805.78
2022-11-28T18:34:37.202Z,96804.94
2022-11-28T18:36:41.100Z,96804.94
2022-11-28T18:38:45.083Z,96806.69
2022-11-28T18:40:47.667Z,96811.84
2022-11-28T18:42:52.882Z,96816.09
2022-11-28T18:44:55.596Z,96811.03
2022-11-28T18:46:58.242Z,96808.38
2022-11-28T18:49:03.173Z,96816.31
2022-11-28T18:51:11.611Z,96813.63
2022-11-28T18:53:14.219Z,96816.22
2022-11-28T18:55:17.311Z,96821.28
2022-11-28T18:57:19.960Z,96820.41
2022-11-28T18:59:22.641Z,96821.25
2022-11-28T19:01:28.544Z,96820.31
2022-11-28T19:03:31.290Z,96823.78
2022-11-28T19:05:39.208Z,96822.03
2022-11-28T19:07:42.230Z,96816.75
2022-11-28T19:09:46.163Z,96816.81
2022-11-28T19:11:51.934Z,96815.13
2022-11-28T19:13:54.529Z,96818.56
2022-11-28T19:15:57.219Z,96821.94
2022-11-28T19:17:59.804Z,96823.78
2022-11-28T19:20:02.445Z,96818.59
2022-11-28T19:22:06.489Z,96823.75
2022-11-28T19:24:10.467Z,96819.50
2022-11-28T19:26:14.779Z,96822.97
2022-11-28T19:28:17.403Z,96818.59
2022-11-28T19:30:20.232Z,96818.56
2022-11-28T19:32:22.845Z,96821.25
2022-11-28T19:34:25.837Z,96816.16
2022-11-28T19:36:29.590Z,96820.44
2022-11-28T19:38:34.236Z,96826.47
2022-11-28T19:40:36.839Z,96820.44
2022-11-28T19:42:39.442Z,96827.38
2022-11-28T19:44:42.081Z,96835.16
2022-11-28T19:46:45.628Z,96839.41
2022-11-28T19:48:51.132Z,96830.75
2022-11-28T19:50:54.506Z,96828.16
2022-11-28T19:52:57.179Z,96835.00
2022-11-28T19:55:01.201Z,96827.28
2022-11-28T19:57:03.826Z,96829.03
2022-11-28T19:59:06.427Z,96832.47
2022-11-28T20:01:11.355Z,96834.25
2022-11-28T20:03:14.998Z,96835.16
2022-11-28T20:05:17.818Z,96839.41
2022-11-28T20:07:20.680Z,96838.50
2022-11-28T20:09:23.451Z,96840.25
2022-11-28T20:11:29.744Z,96839.34
2022-11-28T20:13:33.719Z,96838.50
2022-11-28T20:15:36.873Z,96838.50
2022-11-28T20:17:39.616Z,96844.59
2022-11-28T20:19:42.635Z,96840.25
2022-11-28T20:21:46.033Z,96844.53
2022-11-28T20:23:50.562Z,96839.34
2022-11-28T20:25:53.564Z,96847.09
2022-11-28T20:27:57.499Z,96844.50
2022-11-28T20:30:00.998Z,96843.66
2022-11-28T20:32:03.628Z,96840.19
2022-11-28T20:34:07.127Z,96841.06
2022-11-28T20:36:12.083Z,96852.31
2022-11-28T20:38:14.671Z,96858.34
2022-11-28T20:40:17.332Z,96855.72
2022-11-28T20:42:20.062Z,96860.72
2022-11-28T20:44:24.084Z,96848.78
2022-11-28T20:46:30.261Z,96849.69
2022-11-28T20:48:33.134Z,96851.44
2022-11-28T20:50:35.827Z,96853.22
2022-11-28T20:52:38.446Z,96858.44
2022-11-28T20:54:41.256Z,96855.06
2022-11-28T20:57:19.882Z,96858.50
2022-11-28T20:59:08.533Z,96853.38
2022-11-28T21:01:15.920Z,96854.19
2022-11-28T21:03:18.523Z,96861.97
2022-11-28T21:05:21.145Z,96860.28
2022-11-28T21:07:25.281Z,96861.22
2022-11-28T21:09:27.961Z,96860.34
2022-11-28T21:11:55.613Z,96862.06
2022-11-28T21:13:55.094Z,96858.63
2022-11-28T21:15:59.188Z,96853.41
2022-11-28T21:18:03.810Z,96858.59
2022-11-28T21:20:08.382Z,96855.22
2022-11-28T21:22:10.994Z,96854.34
2022-11-28T21:24:15.084Z,96860.38
2022-11-28T21:26:19.087Z,96859.53
2022-11-28T21:28:21.733Z,96856.03
2022-11-28T21:30:24.384Z,96857.00
2022-11-28T21:32:26.982Z,96855.25
2022-11-28T21:34:30.888Z,96848.31
2022-11-28T21:36:33.689Z,96856.13
2022-11-28T21:38:36.548Z,96857.91
2022-11-28T21:40:39.176Z,96853.63
2022-11-28T21:42:41.847Z,96849.31
2022-11-28T21:44:44.463Z,96854.50
2022-11-28T21:46:47.126Z,96844.13
2022-11-28T21:48:49.764Z,96852.78
2022-11-28T21:50:53.720Z,96855.38
2022-11-28T21:52:56.288Z,96854.44
2022-11-28T21:54:58.871Z,96851.03
2022-11-28T21:57:01.499Z,96857.09
2022-11-28T21:59:04.353Z,96853.63
2022-11-28T22:01:09.230Z,96855.38
2022-11-28T22:03:14.318Z,96855.44
2022-11-28T22:05:17.373Z,96851.91
2022-11-28T22:07:21.394Z,96851.84
2022-11-28T22:09:24.011Z,96859.69
2022-11-28T22:11:26.681Z,96859.69
2022-11-28T22:13:29.563Z,96863.09
2022-11-28T22:15:32.163Z,96864.88
2022-11-28T22:17:34.819Z,96852.72
2022-11-28T22:19:37.460Z,96856.19
2022-11-28T22:21:56.588Z,96865.66
2022-11-28T22:24:00.788Z,96863.97
2022-11-28T22:26:03.945Z,96862.28
2022-11-28T22:28:06.574Z,96869.19
2022-11-28T22:30:10.353Z,96860.47
2022-11-28T22:32:13.192Z,96858.03
2022-11-28T22:34:16.085Z,96863.19
2022-11-28T22:36:20.934Z,96859.75
2022-11-28T22:38:23.541Z,96855.22
2022-11-28T22:40:27.533Z,96854.34
2022-11-28T22:42:30.168Z,96863.06
2022-11-28T22:44:32.903Z,96864.00
2022-11-28T22:46:35.552Z,96862.22
2022-11-28T22:48:39.482Z,96861.50
2022-11-28T22:50:42.129Z,96861.50
2022-11-28T22:52:45.190Z,96861.56
2022-11-28T22:54:49.927Z,96869.34
2022-11-28T22:56:55.170Z,96871.97
2022-11-28T22:58:57.787Z,96865.78
2022-11-28T23:01:00.382Z,96866.66
2022-11-28T23:03:03.204Z,96862.53
2022-11-28T23:05:06.435Z,96865.94
2022-11-28T23:07:09.143Z,96868.59
2022-11-28T23:09:14.496Z,96873.78
2022-11-28T23:11:19.678Z,96866.88
2022-11-28T23:13:24.079Z,96867.78
2022-11-28T23:15:26.675Z,96870.38
2022-11-28T23:17:29.302Z,96873.00
2022-11-28T23:19:32.088Z,96873.03
2022-11-28T23:21:36.701Z,96878.09
2022-11-28T23:23:40.342Z,96873.78
2022-11-28T23:25:42.956Z,96881.50
2022-11-28T23:27:45.605Z,96873.72
2022-11-28T23:29:52.415Z,96871.88
2022-11-28T23:31:55.146Z,96871.03
2022-11-28T23:33:58.852Z,96873.41
2022-11-28T23:36:01.634Z,96870.00
2022-11-28T23:38:04.233Z,96876.16
2022-11-28T23:40:08.201Z,96875.25
2022-11-28T23:42:10.823Z,96878.66
2022-11-28T23:44:14.667Z,96878.75
2022-11-28T23:46:19.734Z,96870.84
2022-11-28T23:48:22.331Z,96877.84
2022-11-28T23:50:25.486Z,96883.03
2022-11-28T23:52:28.100Z,96884.75
2022-11-28T23:54:30.676Z,96882.88
2022-11-28T23:56:36.232Z,96879.56
2022-11-28T23:58:39.723Z,96882.16
